Time;durP1;ratioP1;P1;durP2;ratioP2;P2;SDS_P1;SDS_P2;PMS_P1;PMS_P2;Temp;Humidity;BMP_temperature;BMP_pressure;BME280_temperature;BME280_humidity;BME280_pressure;Samples;Min_cycle;Max_cycle;Signal;HPM_P1;HPM_P2
2021/05/30 00:01:47;;;;;;;19.60;14.43;;;8.50;99.90;;;;;;5048233;28;20291;-69
2021/05/30 00:04:12;;;;;;;21.27;14.53;;;8.50;99.90;;;;;;5049235;28;20497;-68
2021/05/30 00:06:38;;;;;;;21.07;15.27;;;8.50;99.90;;;;;;5048114;28;20547;-69
2021/05/30 00:09:05;;;;;;;20.23;14.00;;;8.40;99.90;;;;;;5049239;28;20530;-69
2021/05/30 00:11:34;;;;;;;21.73;15.10;;;8.40;99.90;;;;;;5048278;28;20429;-70
2021/05/30 00:14:00;;;;;;;20.53;14.60;;;8.40;99.90;;;;;;5049168;28;20518;-68
2021/05/30 00:16:26;;;;;;;20.93;14.80;;;8.30;99.90;;;;;;5047597;28;20537;-69
2021/05/30 00:18:51;;;;;;;22.13;15.23;;;8.30;99.90;;;;;;5048837;28;20526;-70
2021/05/30 00:21:17;;;;;;;23.60;15.03;;;8.40;99.90;;;;;;5053113;28;20543;-70
2021/05/30 00:23:42;;;;;;;20.30;14.70;;;8.30;99.90;;;;;;5049073;28;20204;-64
2021/05/30 00:26:08;;;;;;;22.30;14.90;;;8.30;99.90;;;;;;5048813;28;20646;-69
2021/05/30 00:28:33;;;;;;;21.40;14.53;;;8.30;99.90;;;;;;5047969;28;20288;-70
2021/05/30 00:30:59;;;;;;;19.97;13.57;;;8.30;99.90;;;;;;5048247;28;20238;-69
2021/05/30 00:33:24;;;;;;;19.70;13.70;;;8.30;99.90;;;;;;5048866;28;20193;-69
2021/05/30 00:35:50;;;;;;;19.50;14.17;;;8.20;99.90;;;;;;5047028;28;20201;-69
2021/05/30 00:38:15;;;;;;;22.13;14.77;;;8.20;99.90;;;;;;5048704;28;20204;-69
2021/05/30 00:40:41;;;;;;;20.73;14.77;;;8.20;99.90;;;;;;5052027;28;20254;-69
2021/05/30 00:43:08;;;;;;;22.60;15.43;;;8.10;99.90;;;;;;5051835;28;20209;-69
2021/05/30 00:45:33;;;;;;;22.23;15.10;;;8.00;99.90;;;;;;5051615;28;20436;-70
2021/05/30 00:47:59;;;;;;;26.20;15.53;;;8.00;99.90;;;;;;5059421;28;21165;-68
2021/05/30 00:50:25;;;;;;;25.37;15.57;;;8.00;99.90;;;;;;5055260;28;20723;-68
2021/05/30 00:52:50;;;;;;;26.77;15.50;;;7.90;99.90;;;;;;5052523;28;20240;-68
2021/05/30 00:55:16;;;;;;;25.37;14.97;;;7.90;99.90;;;;;;5051191;28;20199;-69
2021/05/30 00:57:41;;;;;;;23.00;15.57;;;7.90;99.90;;;;;;5053230;28;20193;-69
2021/05/30 01:00:09;;;;;;;23.17;15.43;;;7.90;99.90;;;;;;5052359;28;20221;-69
2021/05/30 01:02:35;;;;;;;20.57;15.27;;;7.90;99.90;;;;;;5052622;28;20215;-69
2021/05/30 01:05:01;;;;;;;21.60;14.87;;;7.80;99.90;;;;;;5053566;28;20470;-69
2021/05/30 01:07:27;;;;;;;23.83;15.30;;;7.80;99.90;;;;;;5052368;28;20850;-68
2021/05/30 01:09:52;;;;;;;22.13;15.80;;;7.80;99.90;;;;;;5051665;28;20266;-69
2021/05/30 01:12:19;;;;;;;22.60;15.73;;;7.70;99.90;;;;;;5051057;28;20181;-67
2021/05/30 01:14:45;;;;;;;21.20;14.67;;;7.70;99.90;;;;;;5052390;28;20184;-69
2021/05/30 01:17:10;;;;;;;23.23;15.60;;;7.70;99.90;;;;;;5051248;28;20443;-63
2021/05/30 01:19:38;;;;;;;24.93;15.97;;;7.70;99.90;;;;;;5052403;28;20221;-68
2021/05/30 01:22:08;;;;;;;23.80;14.60;;;7.60;99.90;;;;;;5048601;28;20524;-68
2021/05/30 01:24:36;;;;;;;23.57;14.50;;;7.60;99.90;;;;;;5050506;28;20521;-69
2021/05/30 01:27:03;;;;;;;22.90;15.00;;;7.60;99.90;;;;;;5050840;28;20463;-69
2021/05/30 01:29:28;;;;;;;24.70;15.03;;;7.60;99.90;;;;;;5052044;28;20449;-69
2021/05/30 01:31:54;;;;;;;24.40;14.73;;;7.60;99.90;;;;;;5050089;28;20466;-69
2021/05/30 01:34:19;;;;;;;21.53;14.63;;;7.50;99.90;;;;;;5051999;28;20199;-60
2021/05/30 01:36:45;;;;;;;22.70;15.50;;;7.50;99.90;;;;;;5051138;28;20564;-69
2021/05/30 01:39:10;;;;;;;21.53;14.50;;;7.50;99.90;;;;;;5051346;28;20206;-69
2021/05/30 01:41:36;;;;;;;22.07;13.70;;;7.40;99.90;;;;;;5051011;28;20191;-69
2021/05/30 01:44:02;;;;;;;18.87;13.90;;;7.40;99.90;;;;;;5051395;28;20296;-63
2021/05/30 01:46:27;;;;;;;21.23;13.10;;;7.40;99.90;;;;;;5050685;28;20190;-69
2021/05/30 01:48:53;;;;;;;17.10;12.87;;;7.30;99.90;;;;;;5051786;28;20178;-69
2021/05/30 01:51:18;;;;;;;22.53;14.30;;;7.40;99.90;;;;;;5050728;28;20231;-69
2021/05/30 01:54:00;;;;;;;20.07;13.30;;;7.40;99.90;;;;;;5051779;28;20226;-69
2021/05/30 01:59:13;;;;;;;23.33;14.07;;;7.40;99.90;;;;;;5043174;28;20420;-69
2021/05/30 02:01:39;;;;;;;20.90;12.93;;;7.40;99.90;;;;;;5049581;28;20443;-69
2021/05/30 02:04:07;;;;;;;22.10;13.40;;;7.40;99.90;;;;;;5050147;28;20205;-69
2021/05/30 02:06:34;;;;;;;21.73;14.03;;;7.40;99.90;;;;;;5049402;28;20187;-69
2021/05/30 02:09:01;;;;;;;18.83;13.07;;;7.40;99.90;;;;;;5051271;28;20417;-69
2021/05/30 02:11:27;;;;;;;18.90;13.10;;;7.30;99.90;;;;;;5050474;28;20439;-69
2021/05/30 02:13:53;;;;;;;19.43;13.23;;;7.30;99.90;;;;;;5037766;28;20425;-69
2021/05/30 02:16:18;;;;;;;19.20;13.45;;;7.30;99.90;;;;;;5049963;28;20910;-69
2021/05/30 02:18:44;;;;;;;17.67;12.37;;;7.20;99.90;;;;;;5051063;28;20205;-63
2021/05/30 02:21:10;;;;;;;17.47;12.63;;;7.20;99.90;;;;;;5056345;28;20183;-69
2021/05/30 02:23:35;;;;;;;21.17;12.97;;;7.20;99.90;;;;;;5051305;28;20942;-67
2021/05/30 02:26:04;;;;;;;17.90;12.20;;;7.20;99.90;;;;;;5050248;28;21153;-69
2021/05/30 02:28:29;;;;;;;15.63;12.50;;;7.10;99.90;;;;;;5038438;28;21063;-69
2021/05/30 02:30:55;;;;;;;14.13;11.10;;;7.10;99.90;;;;;;5050931;28;20219;-69
2021/05/30 02:33:20;;;;;;;18.00;12.47;;;7.10;99.90;;;;;;5049367;28;20604;-69
2021/05/30 02:35:46;;;;;;;18.20;11.03;;;7.10;99.90;;;;;;5050069;28;20367;-65
2021/05/30 02:38:12;;;;;;;18.60;10.80;;;7.20;99.90;;;;;;5050717;28;20185;-69
2021/05/30 02:40:37;;;;;;;16.07;10.50;;;7.30;99.90;;;;;;5049325;28;20201;-69
2021/05/30 02:43:03;;;;;;;15.27;10.63;;;7.30;99.90;;;;;;5049151;28;20201;-69
2021/05/30 02:45:28;;;;;;;13.67;10.30;;;7.40;99.90;;;;;;5047550;28;20191;-69
2021/05/30 02:47:54;;;;;;;13.20;9.93;;;7.40;99.90;;;;;;5045420;28;20199;-68
2021/05/30 02:50:20;;;;;;;12.00;9.07;;;7.40;99.90;;;;;;5050806;28;20280;-69
2021/05/30 02:52:45;;;;;;;15.70;11.07;;;7.50;99.90;;;;;;5049262;28;20239;-69
2021/05/30 02:55:12;;;;;;;15.47;9.63;;;7.60;99.90;;;;;;5050353;28;20901;-69
2021/05/30 02:57:37;;;;;;;12.17;9.80;;;7.60;99.90;;;;;;5054136;28;20361;-69
2021/05/30 03:00:07;;;;;;;12.43;9.70;;;7.60;99.90;;;;;;5049556;28;20522;-69
2021/05/30 03:02:33;;;;;;;11.87;9.80;;;7.70;99.90;;;;;;5050077;28;20196;-69
2021/05/30 03:04:59;;;;;;;14.17;10.17;;;7.70;99.90;;;;;;5049436;28;20415;-68
2021/05/30 03:07:24;;;;;;;14.90;10.30;;;7.80;99.90;;;;;;5048990;28;20292;-69
2021/05/30 03:09:50;;;;;;;12.93;9.43;;;7.80;99.90;;;;;;5050044;28;20188;-60
2021/05/30 03:12:16;;;;;;;13.70;9.63;;;7.90;99.90;;;;;;5050601;28;20200;-69
2021/05/30 03:14:42;;;;;;;12.80;10.30;;;8.00;99.90;;;;;;5048079;28;20192;-69
2021/05/30 03:17:07;;;;;;;10.70;9.60;;;8.00;99.90;;;;;;5049890;28;20442;-69
2021/05/30 03:19:33;;;;;;;13.27;9.33;;;8.00;99.90;;;;;;5049091;28;20447;-69
2021/05/30 03:21:58;;;;;;;11.13;9.43;;;8.00;99.90;;;;;;5050024;28;20192;-69
2021/05/30 03:24:24;;;;;;;12.30;9.33;;;8.00;99.90;;;;;;5048980;28;20215;-69
2021/05/30 03:26:51;;;;;;;15.60;9.60;;;8.00;99.90;;;;;;5049627;28;20227;-69
2021/05/30 03:29:16;;;;;;;11.80;9.20;;;8.00;99.90;;;;;;5049163;28;20189;-69
2021/05/30 03:31:42;;;;;;;13.33;8.63;;;8.00;99.90;;;;;;5049750;28;20565;-69
2021/05/30 03:34:08;;;;;;;11.93;9.23;;;7.90;99.90;;;;;;5055270;28;20184;-70
2021/05/30 03:36:34;;;;;;;11.17;9.10;;;7.90;99.90;;;;;;5047193;28;20216;-69
2021/05/30 03:39:02;;;;;;;13.40;9.43;;;7.80;99.90;;;;;;5049540;28;20185;-68
2021/05/30 03:41:33;;;;;;;14.87;10.53;;;7.80;99.90;;;;;;5048658;28;20447;-70
2021/05/30 03:43:59;;;;;;;12.40;10.07;;;7.70;99.90;;;;;;5040177;28;20474;-68
2021/05/30 03:46:24;;;;;;;16.10;10.67;;;7.70;99.90;;;;;;5049861;28;20423;-69
2021/05/30 03:48:50;;;;;;;14.17;11.27;;;7.70;99.90;;;;;;5048152;28;20450;-69
2021/05/30 03:51:15;;;;;;;11.73;9.93;;;7.60;99.90;;;;;;5049288;28;20634;-69
2021/05/30 03:53:41;;;;;;;11.60;9.00;;;7.60;99.90;;;;;;5047676;28;20224;-68
2021/05/30 03:56:07;;;;;;;12.00;9.50;;;7.60;99.90;;;;;;5049567;28;20211;-69
2021/05/30 03:58:33;;;;;;;11.33;9.27;;;7.60;99.90;;;;;;5048437;28;20595;-63
2021/05/30 04:00:58;;;;;;;12.00;10.17;;;7.60;99.90;;;;;;5047435;28;20577;-68
2021/05/30 04:03:24;;;;;;;11.13;10.03;;;7.50;99.90;;;;;;5048216;28;20224;-69
2021/05/30 04:05:49;;;;;;;13.10;10.43;;;7.50;99.90;;;;;;5047889;28;20511;-68
2021/05/30 04:08:15;;;;;;;12.27;10.37;;;7.50;99.90;;;;;;5049682;28;20205;-61
2021/05/30 04:10:44;;;;;;;12.57;9.80;;;7.50;99.90;;;;;;5047866;28;20273;-63
2021/05/30 04:13:09;;;;;;;13.33;9.93;;;7.50;99.90;;;;;;5049005;28;20184;-68
2021/05/30 04:15:35;;;;;;;11.60;8.83;;;7.50;99.90;;;;;;5048274;28;20408;-68
2021/05/30 04:18:01;;;;;;;14.67;9.73;;;7.50;99.90;;;;;;5049096;28;20646;-68
2021/05/30 04:20:26;;;;;;;10.50;8.80;;;7.50;99.90;;;;;;5049189;28;20326;-69
2021/05/30 04:22:52;;;;;;;9.83;8.33;;;7.50;99.90;;;;;;5047139;28;20986;-61
2021/05/30 04:25:17;;;;;;;12.40;8.93;;;7.50;99.90;;;;;;5048709;28;20195;-69
2021/05/30 04:27:45;;;;;;;10.10;8.43;;;7.50;99.90;;;;;;5047659;28;20248;-68
2021/05/30 04:30:12;;;;;;;10.30;8.70;;;7.50;99.90;;;;;;5047323;28;20187;-61
2021/05/30 04:32:38;;;;;;;10.60;8.53;;;7.50;99.90;;;;;;5053311;28;20528;-68
2021/05/30 04:35:04;;;;;;;11.50;9.03;;;7.50;99.90;;;;;;5045540;28;20439;-68
2021/05/30 04:37:30;;;;;;;9.67;8.00;;;7.50;99.90;;;;;;5048874;28;20419;-69
2021/05/30 04:39:56;;;;;;;9.47;7.53;;;7.50;99.90;;;;;;5045987;28;20448;-61
2021/05/30 04:42:21;;;;;;;9.77;8.77;;;7.60;99.90;;;;;;5046424;28;20199;-68
2021/05/30 04:44:47;;;;;;;9.97;7.50;;;7.60;99.90;;;;;;5048609;28;20216;-65
2021/05/30 04:47:13;;;;;;;9.23;8.33;;;7.60;99.90;;;;;;5048133;28;20440;-69
2021/05/30 04:49:39;;;;;;;9.40;7.97;;;7.60;99.90;;;;;;5046422;28;20311;-69
2021/05/30 04:52:09;;;;;;;9.23;7.73;;;7.60;99.90;;;;;;5062064;28;20800;-69
2021/05/30 04:54:35;;;;;;;11.27;7.80;;;7.70;99.90;;;;;;5048293;28;20443;-69
2021/05/30 04:57:00;;;;;;;8.70;7.30;;;7.60;99.90;;;;;;5048224;28;20423;-69
2021/05/30 04:59:26;;;;;;;8.90;7.30;;;7.70;99.90;;;;;;5048293;28;21264;-70
2021/05/30 05:01:51;;;;;;;9.07;7.93;;;7.70;99.90;;;;;;5047224;28;20215;-69
2021/05/30 05:04:17;;;;;;;11.13;7.20;;;7.80;99.90;;;;;;5048796;28;20296;-69
2021/05/30 05:06:43;;;;;;;7.83;7.03;;;7.80;99.90;;;;;;5047932;28;20197;-69
2021/05/30 05:09:08;;;;;;;9.57;6.80;;;7.90;99.90;;;;;;5048684;28;20190;-70
2021/05/30 05:11:34;;;;;;;9.10;7.57;;;8.00;99.90;;;;;;5047429;28;20215;-69
2021/05/30 05:13:59;;;;;;;7.83;6.90;;;8.00;99.90;;;;;;5048536;28;20669;-70
2021/05/30 05:16:26;;;;;;;7.73;6.80;;;8.10;99.90;;;;;;5047704;28;20673;-69
2021/05/30 05:18:51;;;;;;;7.40;6.60;;;8.10;99.90;;;;;;5049269;28;20641;-69
2021/05/30 05:21:17;;;;;;;7.87;6.47;;;8.30;99.90;;;;;;5047933;28;20477;-69
2021/05/30 05:23:42;;;;;;;7.60;6.60;;;8.30;99.90;;;;;;5048532;28;20270;-69
2021/05/30 05:26:08;;;;;;;7.40;6.33;;;8.30;99.90;;;;;;5048628;28;20189;-70
2021/05/30 05:28:34;;;;;;;9.83;6.87;;;8.40;99.90;;;;;;5052035;28;20272;-69
2021/05/30 05:31:00;;;;;;;7.00;6.30;;;8.50;99.90;;;;;;5051646;28;20235;-70
2021/05/30 05:33:25;;;;;;;9.23;7.10;;;8.50;99.90;;;;;;5040596;28;20193;-61
2021/05/30 05:35:51;;;;;;;7.27;6.33;;;8.60;99.90;;;;;;5048269;28;20424;-69
2021/05/30 05:38:18;;;;;;;7.20;6.20;;;8.60;99.90;;;;;;5051196;28;20232;-70
2021/05/30 05:40:43;;;;;;;8.07;6.37;;;8.70;99.90;;;;;;5051406;28;20481;-70
2021/05/30 05:43:09;;;;;;;7.70;6.50;;;8.80;99.90;;;;;;5050574;28;20856;-70
2021/05/30 05:45:36;;;;;;;7.20;6.30;;;8.80;99.90;;;;;;5051532;28;20217;-70
2021/05/30 05:48:02;;;;;;;8.87;6.37;;;8.90;99.90;;;;;;5058979;28;20442;-70
2021/05/30 05:50:28;;;;;;;8.10;6.30;;;9.00;99.90;;;;;;5052928;28;20420;-70
2021/05/30 05:52:53;;;;;;;8.80;7.23;;;9.10;99.90;;;;;;5051093;28;20486;-70
2021/05/30 05:55:21;;;;;;;7.87;5.97;;;9.10;99.90;;;;;;5051162;28;20193;-70
2021/05/30 05:57:51;;;;;;;7.17;5.50;;;9.20;99.90;;;;;;5050108;28;20444;-70
2021/05/30 06:00:19;;;;;;;8.07;5.90;;;9.20;95.50;;;;;;5051503;28;20421;-61
2021/05/30 06:02:47;;;;;;;6.73;6.13;;;9.30;93.10;;;;;;5051318;28;20516;-70
2021/05/30 06:05:16;;;;;;;6.80;5.43;;;9.30;92.00;;;;;;5050534;28;20913;-70
2021/05/30 06:07:42;;;;;;;6.97;5.93;;;9.40;89.90;;;;;;5051540;28;20430;-70
2021/05/30 06:10:08;;;;;;;6.20;5.20;;;9.50;81.80;;;;;;5051188;28;20412;-70
2021/05/30 06:12:33;;;;;;;7.73;5.23;;;9.50;60.20;;;;;;5050981;28;20181;-70
2021/05/30 06:14:59;;;;;;;6.10;5.50;;;9.60;57.00;;;;;;5050477;28;20805;-70
2021/05/30 06:17:24;;;;;;;6.67;5.40;;;9.60;55.10;;;;;;5051107;28;20189;-70
2021/05/30 06:19:50;;;;;;;7.20;5.50;;;9.60;57.00;;;;;;5053061;28;20235;-64
2021/05/30 06:22:17;;;;;;;5.50;5.00;;;9.70;53.80;;;;;;5051193;28;20264;-70
2021/05/30 06:24:44;;;;;;;5.87;5.20;;;9.80;45.30;;;;;;5048949;28;20467;-70
2021/05/30 06:27:09;;;;;;;5.63;5.13;;;9.80;45.10;;;;;;5050726;28;20479;-69
2021/05/30 06:29:35;;;;;;;6.77;5.10;;;10.00;50.30;;;;;;5050911;28;20466;-70
2021/05/30 06:32:01;;;;;;;8.50;5.43;;;10.10;36.60;;;;;;5053025;28;20276;-70
2021/05/30 06:34:26;;;;;;;6.13;5.17;;;10.20;34.50;;;;;;5050889;28;20208;-62
2021/05/30 06:36:53;;;;;;;5.83;5.00;;;10.40;34.60;;;;;;5049922;28;20549;-66
2021/05/30 06:39:19;;;;;;;6.90;4.63;;;10.60;25.60;;;;;;5050607;28;20255;-70
2021/05/30 06:41:45;;;;;;;5.60;4.93;;;10.70;7.90;;;;;;5050963;28;20424;-71
2021/05/30 06:44:10;;;;;;;4.73;4.33;;;10.80;3.50;;;;;;5050411;28;20557;-71
2021/05/30 06:46:36;;;;;;;4.50;4.10;;;11.00;1.00;;;;;;5049151;28;20593;-65
2021/05/30 06:49:03;;;;;;;4.70;4.30;;;11.00;1.00;;;;;;5050768;28;20193;-71
2021/05/30 06:51:30;;;;;;;4.70;4.30;;;11.10;1.00;;;;;;5050746;28;20499;-71
2021/05/30 06:53:58;;;;;;;5.50;4.50;;;11.10;1.00;;;;;;5049480;28;20981;-71
2021/05/30 06:56:24;;;;;;;4.40;4.00;;;11.10;1.00;;;;;;5048823;28;20776;-72
2021/05/30 06:58:50;;;;;;;5.20;4.70;;;11.10;1.00;;;;;;5050149;28;20435;-72
2021/05/30 07:01:19;;;;;;;5.00;4.60;;;11.10;1.00;;;;;;5050377;28;20190;-72
2021/05/30 07:03:46;;;;;;;5.43;4.90;;;11.10;1.00;;;;;;5057504;28;20468;-72
2021/05/30 07:06:11;;;;;;;4.50;4.10;;;11.20;1.00;;;;;;5049735;28;20432;-73
2021/05/30 07:08:37;;;;;;;5.60;4.10;;;11.20;1.00;;;;;;5048539;28;20988;-73
2021/05/30 07:11:02;;;;;;;5.07;4.57;;;11.20;1.00;;;;;;5050278;28;20675;-64
2021/05/30 07:13:28;;;;;;;7.43;5.13;;;11.30;1.00;;;;;;5047982;28;20549;-73
2021/05/30 07:15:54;;;;;;;5.97;5.20;;;11.30;1.00;;;;;;5050233;28;20216;-72
2021/05/30 07:18:20;;;;;;;5.27;4.60;;;11.40;1.00;;;;;;5048596;28;20185;-71
2021/05/30 07:20:47;;;;;;;5.50;4.50;;;11.50;1.00;;;;;;5049716;28;20694;-71
2021/05/30 07:23:14;;;;;;;4.60;4.20;;;11.60;1.00;;;;;;5048917;28;20464;-71
2021/05/30 07:25:39;;;;;;;4.47;4.17;;;11.80;1.00;;;;;;5049809;28;20432;-71
2021/05/30 07:28:06;;;;;;;4.70;4.30;;;11.90;99.90;;;;;;5048502;28;20420;-71
2021/05/30 07:30:32;;;;;;;5.47;5.07;;;11.90;99.90;;;;;;5050044;28;20720;-71
2021/05/30 07:32:58;;;;;;;4.77;4.37;;;12.00;99.90;;;;;;5048675;28;20529;-71
2021/05/30 07:35:24;;;;;;;5.13;4.63;;;12.00;99.90;;;;;;5057090;28;20877;-70
2021/05/30 07:37:50;;;;;;;5.07;4.60;;;12.10;99.90;;;;;;5049203;28;20267;-71
2021/05/30 07:40:16;;;;;;;5.43;4.90;;;12.20;99.90;;;;;;5049626;28;20194;-71
2021/05/30 07:42:42;;;;;;;5.80;5.30;;;12.30;99.90;;;;;;5048716;28;20527;-71
2021/05/30 07:45:08;;;;;;;5.17;4.77;;;12.30;99.90;;;;;;5049593;28;20428;-70
2021/05/30 07:47:34;;;;;;;5.37;4.87;;;12.40;99.90;;;;;;5052011;28;20518;-71
2021/05/30 07:49:59;;;;;;;5.57;5.07;;;12.50;99.90;;;;;;5049540;28;20496;-71
2021/05/30 07:52:25;;;;;;;5.43;4.93;;;12.60;99.90;;;;;;5049430;28;20186;-71
2021/05/30 07:54:50;;;;;;;5.60;5.10;;;12.70;99.90;;;;;;5049592;28;20190;-71
2021/05/30 07:57:16;;;;;;;5.53;4.90;;;12.80;99.90;;;;;;5054000;28;20190;-71
2021/05/30 07:59:42;;;;;;;5.60;5.20;;;12.90;99.90;;;;;;5049287;28;20749;-71
2021/05/30 08:02:07;;;;;;;5.50;5.10;;;13.10;99.90;;;;;;5050790;28;20193;-71
2021/05/30 08:04:33;;;;;;;7.10;5.83;;;13.10;99.90;;;;;;5052338;28;20227;-72
2021/05/30 08:07:00;;;;;;;5.77;5.37;;;13.00;99.90;;;;;;5049002;28;20239;-72
2021/05/30 08:09:25;;;;;;;5.77;5.27;;;12.90;99.90;;;;;;5047061;28;20186;-64
2021/05/30 08:11:53;;;;;;;5.40;4.90;;;12.80;99.90;;;;;;5046078;28;20419;-72
2021/05/30 08:14:19;;;;;;;5.27;4.77;;;12.90;99.90;;;;;;5048874;28;20178;-72
2021/05/30 08:16:44;;;;;;;5.00;4.60;;;13.00;98.40;;;;;;5049107;28;20439;-64
2021/05/30 08:19:12;;;;;;;5.30;4.80;;;13.10;97.30;;;;;;5047054;28;20183;-71
2021/05/30 08:21:38;;;;;;;5.17;4.77;;;13.20;97.60;;;;;;5048935;28;20619;-72
2021/05/30 08:24:04;;;;;;;5.20;4.80;;;13.30;95.20;;;;;;5049024;28;20474;-73
2021/05/30 08:26:30;;;;;;;4.80;4.47;;;13.40;95.20;;;;;;5049038;28;20482;-62
2021/05/30 08:28:56;;;;;;;4.90;4.60;;;13.60;93.00;;;;;;5047861;28;20445;-73
2021/05/30 08:31:21;;;;;;;5.50;5.10;;;13.70;91.30;;;;;;5048919;28;20746;-73
2021/05/30 08:33:47;;;;;;;5.50;5.00;;;13.90;94.40;;;;;;5050737;28;20266;-73
2021/05/30 08:36:12;;;;;;;4.70;4.40;;;14.00;91.10;;;;;;5048780;28;20204;-72
2021/05/30 08:38:38;;;;;;;5.67;5.17;;;14.10;92.00;;;;;;5048731;28;20190;-73
2021/05/30 08:41:03;;;;;;;5.80;5.30;;;14.30;92.30;;;;;;5047764;28;20203;-73
2021/05/30 08:43:29;;;;;;;4.90;4.60;;;14.50;92.50;;;;;;5046037;28;20216;-73
2021/05/30 08:45:55;;;;;;;5.30;4.90;;;14.60;88.10;;;;;;5047107;28;20204;-73
2021/05/30 08:48:21;;;;;;;4.97;4.67;;;14.70;88.40;;;;;;5048456;28;20267;-72
2021/05/30 08:51:05;;;;;;;5.03;4.73;;;14.80;84.50;;;;;;5048688;28;20424;-72
2021/05/30 08:53:37;;;;;;;5.60;5.10;;;15.00;99.90;;;;;;5048613;28;20255;-66
2021/05/30 08:56:04;;;;;;;5.67;5.17;;;15.20;1.00;;;;;;5056454;28;20563;-72
2021/05/30 08:58:56;;;;;;;5.57;5.07;;;15.30;92.10;;;;;;5052525;28;20494;-73
2021/05/30 09:01:25;;;;;;;5.50;5.10;;;15.80;94.70;;;;;;5046795;28;20935;-73
2021/05/30 09:04:07;;;;;;;5.70;5.20;;;16.00;78.80;;;;;;5055537;28;20805;-72
2021/05/30 09:06:41;;;;;;;6.00;5.60;;;16.30;1.00;;;;;;5052564;28;20432;-72
2021/05/30 09:09:09;;;;;;;5.70;5.30;;;16.50;99.90;;;;;;5051158;28;20482;-70
2021/05/30 09:11:37;;;;;;;5.70;5.10;;;16.90;1.00;;;;;;5052313;28;20475;-72
2021/05/30 09:14:05;;;;;;;4.87;4.57;;;17.40;99.90;;;;;;5051728;28;20414;-70
2021/05/30 09:16:45;;;;;;;5.70;5.30;;;17.80;99.90;;;;;;5059552;28;20416;-71
2021/05/30 09:19:28;;;;;;;5.40;5.00;;;18.40;1.00;;;;;;5052213;28;20413;-71
2021/05/30 09:21:53;;;;;;;5.23;4.93;;;18.80;1.00;;;;;;5052331;28;20412;-71
2021/05/30 09:24:19;;;;;;;5.70;5.30;;;19.60;99.90;;;;;;5051414;28;20493;-72
2021/05/30 09:26:44;;;;;;;5.43;5.03;;;20.10;99.90;;;;;;5052310;28;20211;-72
2021/05/30 09:29:12;;;;;;;5.37;4.97;;;20.00;99.90;;;;;;5052017;28;20208;-71
2021/05/30 09:31:54;;;;;;;5.87;5.30;;;19.90;99.90;;;;;;5051428;28;20182;-71
2021/05/30 09:34:33;;;;;;;5.20;4.83;;;19.60;99.90;;;;;;5052427;28;20995;-71
2021/05/30 09:36:59;;;;;;;5.17;4.87;;;19.60;99.90;;;;;;5050897;28;20801;-71
2021/05/30 09:39:36;;;;;;;5.53;5.13;;;19.50;99.90;;;;;;5051574;28;20420;-70
2021/05/30 09:42:32;;;;;;;6.40;5.90;;;19.00;99.90;;;;;;5050346;28;20423;-71
2021/05/30 09:45:00;;;;;;;5.57;5.27;;;18.70;99.90;;;;;;5031804;28;20515;-71
2021/05/30 09:47:32;;;;;;;5.90;5.50;;;18.50;1.00;;;;;;5072125;28;20415;-71
2021/05/30 09:49:58;;;;;;;5.97;5.57;;;18.30;1.00;;;;;;5071807;28;20419;-71
2021/05/30 09:52:47;;;;;;;5.40;5.10;;;18.40;1.00;;;;;;5071972;28;20421;-72
2021/05/30 09:55:21;;;;;;;5.90;5.60;;;18.50;1.00;;;;;;5043324;28;20182;-72
2021/05/30 09:58:16;;;;;;;5.70;5.40;;;18.80;1.00;;;;;;5050219;28;20438;-71
2021/05/30 10:00:51;;;;;;;6.40;5.90;;;18.80;1.00;;;;;;5048076;28;20436;-71
2021/05/30 10:03:18;;;;;;;5.90;5.40;;;19.20;1.00;;;;;;5048482;28;21059;-72
2021/05/30 10:05:44;;;;;;;5.20;4.90;;;19.50;1.00;;;;;;5051292;28;20422;-72
2021/05/30 10:08:10;;;;;;;5.77;5.47;;;20.50;1.00;;;;;;5051203;28;20817;-73
2021/05/30 10:10:36;;;;;;;6.03;5.53;;;21.30;99.90;;;;;;5047265;28;20639;-60
2021/05/30 10:13:02;;;;;;;5.33;5.03;;;22.10;99.90;;;;;;5050393;28;20417;-60
2021/05/30 10:15:28;;;;;;;5.53;5.23;;;22.30;99.90;;;;;;5051240;28;20854;-72
2021/05/30 10:17:56;;;;;;;5.80;5.27;;;21.80;99.90;;;;;;5050827;28;20417;-73
2021/05/30 10:20:24;;;;;;;5.73;5.37;;;21.40;99.90;;;;;;5058078;28;20789;-72
2021/05/30 10:22:53;;;;;;;6.17;5.60;;;21.10;99.90;;;;;;5050820;28;20432;-73
2021/05/30 10:25:33;;;;;;;6.10;5.80;;;20.90;99.90;;;;;;5051563;28;20879;-73
2021/05/30 10:28:09;;;;;;;5.40;5.00;;;20.60;99.90;;;;;;5063848;28;20484;-73
2021/05/30 10:30:35;;;;;;;5.67;5.27;;;20.00;99.90;;;;;;5071113;28;20384;-73
2021/05/30 10:33:18;;;;;;;5.43;5.13;;;19.90;99.90;;;;;;5057661;28;20510;-73
2021/05/30 10:35:46;;;;;;;5.87;5.47;;;19.60;99.90;;;;;;5049894;28;20512;-73
2021/05/30 10:38:33;;;;;;;6.40;5.87;;;19.50;99.90;;;;;;5063719;28;20778;-61
2021/05/30 10:41:16;;;;;;;5.30;5.00;;;19.30;99.90;;;;;;5049414;28;20504;-66
2021/05/30 10:43:42;;;;;;;5.40;5.10;;;19.10;1.00;;;;;;5050846;28;20441;-72
2021/05/30 10:46:09;;;;;;;5.63;5.33;;;18.90;99.90;;;;;;5049332;28;20475;-73
2021/05/30 10:48:35;;;;;;;6.10;5.70;;;18.60;1.00;;;;;;5048115;28;20425;-73
2021/05/30 10:53:49;;;;;;;5.90;5.50;;;18.60;1.00;;;;;;5043913;28;20476;-73
2021/05/30 10:56:31;;;;;;;6.47;6.00;;;18.40;1.00;;;;;;5050431;28;20426;-73
2021/05/30 10:59:06;;;;;;;6.30;5.90;;;18.50;1.00;;;;;;5049779;28;20419;-73
2021/05/30 11:01:44;;;;;;;6.50;6.00;;;18.50;1.00;;;;;;5050096;28;20412;-73
2021/05/30 11:04:31;;;;;;;6.90;6.40;;;18.40;1.00;;;;;;5049667;28;20591;-72
2021/05/30 11:06:59;;;;;;;7.07;6.57;;;18.20;1.00;;;;;;5050476;28;20401;-73
2021/05/30 11:10:01;;;;;;;6.97;6.53;;;18.40;1.00;;;;;;5057665;28;20455;-73
2021/05/30 11:12:33;;;;;;;6.27;5.80;;;18.50;97.60;;;;;;5050591;28;20420;-73
2021/05/30 11:15:08;;;;;;;6.70;6.30;;;18.70;1.00;;;;;;5050586;28;20401;-73
2021/05/30 11:17:44;;;;;;;6.00;5.63;;;19.10;1.00;;;;;;5049282;28;20427;-72
2021/05/30 11:20:19;;;;;;;6.17;5.77;;;19.60;1.00;;;;;;5050333;28;20392;-73
2021/05/30 11:22:51;;;;;;;6.57;6.17;;;19.50;1.00;;;;;;5048944;28;20436;-73
2021/05/30 11:25:22;;;;;;;6.70;6.17;;;19.60;1.00;;;;;;5050562;28;20404;-73
2021/05/30 11:27:49;;;;;;;6.83;6.33;;;19.60;1.00;;;;;;5047758;28;20511;-73
2021/05/30 11:30:33;;;;;;;6.23;5.83;;;19.40;1.00;;;;;;5049900;28;20878;-64
2021/05/30 11:33:00;;;;;;;6.70;6.10;;;19.30;1.00;;;;;;5038686;28;20816;-73
2021/05/30 11:35:26;;;;;;;6.10;5.60;;;19.30;1.00;;;;;;5049934;28;20712;-73
2021/05/30 11:37:51;;;;;;;7.90;7.30;;;19.10;1.00;;;;;;5048293;28;20474;-75
2021/05/30 11:40:18;;;;;;;6.73;6.20;;;19.50;1.00;;;;;;5049042;28;20861;-73
2021/05/30 11:42:46;;;;;;;5.50;5.20;;;20.10;1.00;;;;;;5047989;28;20201;-73
2021/05/30 11:45:35;;;;;;;6.53;6.10;;;20.20;99.90;;;;;;5049788;28;20846;-74
2021/05/30 11:48:19;;;;;;;6.40;6.00;;;20.20;99.90;;;;;;5048910;28;20433;-74
2021/05/30 11:50:53;;;;;;;6.77;6.37;;;20.00;99.90;;;;;;5041657;28;20454;-73
2021/05/30 11:53:34;;;;;;;6.97;6.47;;;20.10;99.90;;;;;;5048108;28;20476;-75
2021/05/30 11:56:01;;;;;;;5.47;5.03;;;20.60;99.90;;;;;;5052291;28;20416;-74
2021/05/30 11:58:27;;;;;;;5.87;5.57;;;21.70;99.90;;;;;;5046869;28;20441;-74
2021/05/30 12:00:55;;;;;;;6.90;6.50;;;22.60;99.90;;;;;;5049300;28;20944;-70
2021/05/30 12:03:21;;;;;;;5.67;5.37;;;23.60;99.90;;;;;;5048281;28;20452;-73
2021/05/30 12:05:47;;;;;;;5.90;5.60;;;23.20;99.90;;;;;;5047676;28;20436;-74
2021/05/30 12:08:17;;;;;;;5.60;5.20;;;22.80;99.90;;;;;;5044480;28;20199;-74
2021/05/30 12:11:02;;;;;;;5.50;5.20;;;22.40;99.90;;;;;;5047275;28;20186;-65
2021/05/30 12:13:35;;;;;;;5.10;4.80;;;22.30;99.90;;;;;;5044422;28;20428;-75
2021/05/30 12:16:18;;;;;;;5.70;5.40;;;22.90;99.90;;;;;;5046159;28;20511;-72
2021/05/30 12:18:59;;;;;;;5.53;5.23;;;23.80;99.90;;;;;;5043369;28;20440;-75
2021/05/30 12:21:27;;;;;;;5.10;4.80;;;24.40;99.90;;;;;;5042313;28;20923;-77
2021/05/30 12:23:53;;;;;;;5.60;5.30;;;25.20;99.90;;;;;;5044548;28;20488;-79
2021/05/30 12:26:20;;;;;;;4.50;4.30;;;25.70;99.90;;;;;;5049574;28;20479;-80
2021/05/30 12:28:46;;;;;;;5.03;4.73;;;26.60;99.90;;;;;;5048235;28;20173;-62
2021/05/30 12:31:15;;;;;;;5.23;4.93;;;27.00;99.90;;;;;;5049542;28;20463;-80
2021/05/30 12:33:53;;;;;;;5.13;4.73;;;27.10;99.90;;;;;;5047901;28;20942;-81
2021/05/30 12:36:37;;;;;;;5.50;5.10;;;26.80;99.90;;;;;;5055166;28;20442;-80
2021/05/30 12:39:10;;;;;;;5.73;5.37;;;26.70;99.90;;;;;;5052927;28;20510;-80
2021/05/30 12:41:46;;;;;;;5.50;5.20;;;26.90;99.90;;;;;;5053863;28;20534;-81
2021/05/30 12:44:14;;;;;;;4.83;4.63;;;26.90;99.90;;;;;;5036527;28;20455;-61
2021/05/30 12:47:00;;;;;;;4.70;4.50;;;26.80;99.90;;;;;;5055852;28;20405;-81
2021/05/30 12:49:26;;;;;;;5.47;5.17;;;26.60;99.90;;;;;;5049550;28;20438;-81
2021/05/30 12:52:04;;;;;;;5.27;4.97;;;26.90;99.90;;;;;;5056352;28;20509;-64
2021/05/30 12:54:32;;;;;;;5.50;5.20;;;27.00;99.90;;;;;;5055938;28;20486;-81
2021/05/30 12:56:59;;;;;;;6.57;6.07;;;26.80;99.90;;;;;;5056290;28;20404;-81
2021/05/30 12:59:31;;;;;;;5.23;5.03;;;26.30;99.90;;;;;;5053692;28;20515;-78